Time;durP1;ratioP1;P1;durP2;ratioP2;P2;SDS_P1;SDS_P2;PMS_P1;PMS_P2;Temp;Humidity;BMP_temperature;BMP_pressure;BME280_temperature;BME280_humidity;BME280_pressure;Samples;Min_cycle;Max_cycle;Signal;HPM_P1;HPM_P2
2022/11/09 00:00:06;;;;;;;3.78;2.85;;;;;;;12.59;73.51;99089.75;348193;28;1147;-86
2022/11/09 00:00:18;;;;;;;4.25;2.90;;;;;;;12.59;73.69;99097.56;345667;28;962;-86
2022/11/09 00:00:30;;;;;;;5.40;3.00;;;;;;;12.59;73.74;99102.78;344436;28;1281;-86
2022/11/09 00:00:43;;;;;;;6.47;3.03;;;;;;;12.59;73.45;99097.56;343053;29;1031;-86
2022/11/09 00:01:00;;;;;;;5.57;3.10;;;;;;;12.58;73.43;99103.72;344560;28;1163;-86
2022/11/09 00:01:12;;;;;;;4.05;3.03;;;;;;;12.57;73.66;99104.63;343721;28;1798;-87
2022/11/09 00:01:26;;;;;;;4.65;3.08;;;;;;;12.57;73.67;99096.81;346184;28;1461;-88
2022/11/09 00:01:38;;;;;;;6.43;3.40;;;;;;;12.57;73.62;99104.63;346601;28;1024;-87
2022/11/09 00:01:50;;;;;;;6.30;3.30;;;;;;;12.58;73.74;99101.13;346711;28;739;-87
2022/11/09 00:02:04;;;;;;;4.43;3.15;;;;;;;12.58;73.71;99101.13;345171;28;986;-87
2022/11/09 00:02:16;;;;;;;4.18;3.20;;;;;;;12.58;73.84;99095.91;344925;28;1210;-86
2022/11/09 00:02:28;;;;;;;4.13;3.20;;;;;;;12.58;74.06;99103.72;342029;28;1068;-87
2022/11/09 00:02:40;;;;;;;3.97;3.22;;;;;;;12.58;74.15;99095.91;342396;28;1041;-87
2022/11/09 00:02:54;;;;;;;4.28;3.45;;;;;;;12.55;73.88;99104.69;343727;28;1496;-87
2022/11/09 00:03:06;;;;;;;5.30;3.90;;;;;;;12.51;73.69;99112.75;341203;29;847;-87
2022/11/09 00:03:18;;;;;;;5.82;3.95;;;;;;;12.49;73.97;99106.78;341089;29;1052;-87
2022/11/09 00:03:31;;;;;;;6.10;3.88;;;;;;;12.48;74.13;99110.31;342187;28;1170;-87
2022/11/09 00:03:43;;;;;;;8.05;4.78;;;;;;;12.45;74.06;99100.84;343510;28;1141;-87
2022/11/09 00:04:00;;;;;;;9.80;5.97;;;;;;;12.46;73.93;99104.34;343398;28;1181;-87
2022/11/09 00:04:12;;;;;;;14.15;7.97;;;;;;;12.45;74.07;99106.06;346151;28;1251;-87
2022/11/09 00:04:24;;;;;;;13.48;7.47;;;;;;;12.43;73.67;99107.06;346065;28;1111;-88
2022/11/09 00:04:36;;;;;;;9.45;5.78;;;;;;;12.43;73.87;99109.69;346530;28;973;-87
2022/11/09 00:04:48;;;;;;;8.35;5.10;;;;;;;12.41;73.75;99108.91;346451;28;953;-89
2022/11/09 00:05:00;;;;;;;8.45;5.22;;;;;;;12.37;74.18;99108.22;346641;28;751;-89
2022/11/09 00:05:12;;;;;;;7.75;5.40;;;;;;;12.38;74.08;99107.31;345481;28;1068;-89
2022/11/09 00:05:24;;;;;;;8.20;5.55;;;;;;;12.38;74.25;99115.97;346218;28;1218;-89
2022/11/09 00:05:36;;;;;;;8.85;6.43;;;;;;;12.38;74.08;99110.75;346231;28;1203;-88
2022/11/09 00:05:55;;;;;;;10.38;7.10;;;;;;;12.39;74.73;99101.16;346463;28;989;-88
2022/11/09 00:06:08;;;;;;;13.90;8.30;;;;;;;12.41;74.21;99108.91;343876;28;873;-87
2022/11/09 00:06:20;;;;;;;14.40;8.63;;;;;;;12.39;74.21;99107.25;341869;28;1102;-88
2022/11/09 00:06:32;;;;;;;13.18;8.48;;;;;;;12.41;74.08;99104.53;341497;28;2054;-87
2022/11/09 00:06:44;;;;;;;10.85;7.40;;;;;;;12.43;74.44;99107.91;342462;28;911;-87
2022/11/09 00:06:56;;;;;;;9.65;6.75;;;;;;;12.44;74.22;99112.22;344606;28;978;-88
2022/11/09 00:07:08;;;;;;;8.30;6.43;;;;;;;12.47;74.19;99108.63;344804;28;1115;-88
2022/11/09 00:07:21;;;;;;;8.73;5.82;;;;;;;12.48;74.37;99110.31;342978;28;1085;-88
2022/11/09 00:07:33;;;;;;;7.47;5.07;;;;;;;12.47;74.29;99111.22;342689;28;796;-88
2022/11/09 00:07:44;;;;;;;8.63;4.90;;;;;;;12.47;74.26;99104.22;342499;28;899;-88
2022/11/09 00:07:56;;;;;;;8.57;4.60;;;;;;;12.44;74.25;99108.78;343762;28;1109;-88
2022/11/09 00:08:10;;;;;;;7.85;4.40;;;;;;;12.42;74.38;99115.81;343926;28;832;-89
2022/11/09 00:08:22;;;;;;;9.50;5.70;;;;;;;12.38;74.32;99112.53;343860;28;961;-88
2022/11/09 00:08:36;;;;;;;9.55;6.43;;;;;;;12.38;74.23;99108.16;344773;28;1475;-88
2022/11/09 00:08:48;;;;;;;10.35;6.03;;;;;;;12.32;74.71;99108.44;344386;28;1988;-87
2022/11/09 00:09:02;;;;;;;9.00;5.13;;;;;;;12.30;74.82;99112.06;346560;28;871;-88
2022/11/09 00:09:18;;;;;;;7.72;5.30;;;;;;;12.27;74.46;99115.63;344792;28;1246;-89
2022/11/09 00:09:30;;;;;;;8.77;5.38;;;;;;;12.25;74.80;99103.59;347932;28;837;-89
2022/11/09 00:09:42;;;;;;;8.48;4.82;;;;;;;12.22;74.71;99104.59;347611;28;1109;-88
2022/11/09 00:09:54;;;;;;;6.88;4.55;;;;;;;12.18;75.11;99109.09;346599;28;762;-89
2022/11/09 00:10:07;;;;;;;6.33;4.43;;;;;;;12.17;75.08;99109.16;345223;28;748;-89
2022/11/09 00:10:19;;;;;;;6.32;4.60;;;;;;;12.17;75.24;99103.97;344734;28;1144;-89
2022/11/09 00:10:31;;;;;;;6.20;4.70;;;;;;;12.18;75.13;99103.88;343454;28;1112;-89
2022/11/09 00:10:43;;;;;;;6.00;4.50;;;;;;;12.18;75.00;99108.28;345008;28;841;-88
2022/11/09 00:11:02;;;;;;;6.00;4.30;;;;;;;12.22;75.21;99103.75;344920;28;1208;-89
2022/11/09 00:11:14;;;;;;;6.13;4.22;;;;;;;12.25;74.92;99101.81;343492;28;1207;-88
2022/11/09 00:11:26;;;;;;;6.78;4.20;;;;;;;12.26;74.81;99100.91;342618;28;1321;-88
2022/11/09 00:11:38;;;;;;;6.63;4.30;;;;;;;12.28;75.10;99099.09;342798;28;746;-89
2022/11/09 00:11:52;;;;;;;6.53;4.25;;;;;;;12.26;75.02;99100.91;342302;28;1255;-89
2022/11/09 00:12:06;;;;;;;7.57;4.53;;;;;;;12.26;75.22;99100.91;344205;28;899;-88
2022/11/09 00:12:18;;;;;;;7.93;4.53;;;;;;;12.29;75.23;99098.16;343951;28;1023;-87
2022/11/09 00:12:30;;;;;;;7.57;4.03;;;;;;;12.31;75.31;99103.28;342826;28;725;-88
2022/11/09 00:12:42;;;;;;;7.22;3.67;;;;;;;12.33;75.40;99099.69;342542;28;777;-89
2022/11/09 00:12:53;;;;;;;7.18;3.78;;;;;;;12.35;74.85;99100.50;340010;29;1124;-89
2022/11/09 00:13:05;;;;;;;7.60;4.03;;;;;;;12.36;75.21;99103.94;339965;29;914;-88
2022/11/09 00:13:17;;;;;;;6.78;4.00;;;;;;;12.37;74.89;99101.25;340054;29;1122;-89
2022/11/09 00:13:30;;;;;;;6.45;3.92;;;;;;;12.37;74.94;99109.06;341143;29;1075;-89
2022/11/09 00:13:43;;;;;;;6.03;4.13;;;;;;;12.39;75.04;99104.63;341171;29;957;-89
2022/11/09 00:13:55;;;;;;;7.30;4.50;;;;;;;12.41;75.15;99108.91;340958;28;2787;-89
2022/11/09 00:14:13;;;;;;;7.85;4.72;;;;;;;12.40;75.30;99105.47;342509;28;1233;-88
2022/11/09 00:14:25;;;;;;;6.95;4.40;;;;;;;12.40;75.25;99108.06;344144;28;849;-88
2022/11/09 00:14:37;;;;;;;6.88;4.20;;;;;;;12.43;75.09;99112.28;344135;28;702;-88
2022/11/09 00:14:49;;;;;;;6.95;4.00;;;;;;;12.43;75.20;99112.28;343901;28;853;-89
2022/11/09 00:15:01;;;;;;;7.00;4.10;;;;;;;12.43;75.19;99107.06;343801;28;948;-89
2022/11/09 00:15:13;;;;;;;7.45;4.07;;;;;;;12.39;75.07;99109.84;345069;28;1256;-89
2022/11/09 00:15:25;;;;;;;8.57;4.53;;;;;;;12.43;75.09;99112.28;345376;28;736;-89
2022/11/09 00:15:37;;;;;;;6.80;4.78;;;;;;;12.35;74.94;99110.91;345428;28;1224;-89
2022/11/09 00:15:49;;;;;;;6.70;4.82;;;;;;;12.32;74.97;99107.59;346431;28;1135;-89
2022/11/09 00:16:01;;;;;;;7.55;4.60;;;;;;;12.29;75.08;99107.75;344340;28;759;-89
2022/11/09 00:16:15;;;;;;;7.78;4.25;;;;;;;12.28;74.67;99106.91;343948;28;841;-89
2022/11/09 00:16:27;;;;;;;7.47;4.20;;;;;;;12.23;75.01;99111.47;344905;28;840;-88
2022/11/09 00:16:39;;;;;;;6.80;4.32;;;;;;;12.22;74.87;99109.81;343930;28;833;-88
2022/11/09 00:16:51;;;;;;;7.22;4.50;;;;;;;12.22;75.17;99109.81;343688;28;987;-89
2022/11/09 00:17:03;;;;;;;7.40;4.40;;;;;;;12.24;75.00;99107.13;341125;29;843;-88
2022/11/09 00:17:15;;;;;;;8.60;4.40;;;;;;;12.27;74.81;99112.19;341148;29;759;-89
2022/11/09 00:17:27;;;;;;;7.70;4.38;;;;;;;12.27;74.45;99105.19;343467;28;1100;-89
2022/11/09 00:17:39;;;;;;;7.75;4.38;;;;;;;12.27;74.97;99113.03;342247;28;1117;-89
2022/11/09 00:17:51;;;;;;;7.15;4.60;;;;;;;12.27;74.99;99110.41;343501;28;1131;-89
2022/11/09 00:18:03;;;;;;;6.95;4.70;;;;;;;12.28;74.75;99109.50;344518;28;737;-88
2022/11/09 00:18:15;;;;;;;8.03;4.77;;;;;;;12.30;74.78;99118.09;343658;28;1115;-88
2022/11/09 00:18:28;;;;;;;8.05;4.93;;;;;;;12.31;74.42;99114.56;344592;28;1219;-89
2022/11/09 00:18:46;;;;;;;8.55;5.13;;;;;;;12.33;74.48;99117.09;343930;28;898;-89
2022/11/09 00:18:58;;;;;;;8.00;5.28;;;;;;;12.34;74.41;99108.38;343696;28;1027;-88
2022/11/09 00:19:12;;;;;;;9.57;5.50;;;;;;;12.35;74.33;99116.13;343796;28;878;-89
2022/11/09 00:19:24;;;;;;;12.23;5.90;;;;;;;12.37;74.59;99108.22;341222;28;986;-88
2022/11/09 00:19:36;;;;;;;11.10;6.03;;;;;;;12.37;74.15;99114.28;339983;29;835;-88
2022/11/09 00:19:47;;;;;;;10.25;6.10;;;;;;;12.35;74.47;99116.13;340937;29;989;-89
2022/11/09 00:19:59;;;;;;;11.63;5.85;;;;;;;12.36;74.26;99115.19;340988;29;1039;-89
2022/11/09 00:20:11;;;;;;;12.35;6.07;;;;;;;12.34;74.29;99110.97;341029;29;1158;-88
2022/11/09 00:20:23;;;;;;;12.38;6.22;;;;;;;12.26;74.34;99115.72;342334;28;1113;-89
2022/11/09 00:20:35;;;;;;;11.38;6.78;;;;;;;12.17;74.91;99110.03;342360;28;1073;-89
2022/11/09 00:20:47;;;;;;;11.80;6.60;;;;;;;12.18;74.86;99108.28;342554;28;974;-89
2022/11/09 00:21:07;;;;;;;13.15;6.38;;;;;;;12.16;74.99;99115.31;342774;28;749;-89
2022/11/09 00:21:22;;;;;;;17.08;6.70;;;;;;;12.13;75.15;99113.72;341813;28;1514;-89
2022/11/09 00:21:34;;;;;;;15.93;7.07;;;;;;;12.05;75.46;99114.97;343135;28;1773;-88
2022/11/09 00:21:46;;;;;;;13.88;6.90;;;;;;;12.03;75.48;99115.03;342816;28;1989;-89
2022/11/09 00:21:58;;;;;;;16.92;6.75;;;;;;;11.97;75.99;99118.78;340376;29;1664;-89
2022/11/09 00:22:10;;;;;;;15.10;6.55;;;;;;;11.96;75.74;99114.47;341230;29;750;-88
2022/11/09 00:22:21;;;;;;;12.45;6.47;;;;;;;11.93;76.00;99109.44;340642;29;1360;-89
2022/11/09 00:22:33;;;;;;;12.40;6.32;;;;;;;11.94;75.92;99121.53;341020;29;1203;-88
2022/11/09 00:22:49;;;;;;;13.98;6.50;;;;;;;11.96;76.40;99118.84;344118;28;749;-88
2022/11/09 00:23:01;;;;;;;12.75;6.53;;;;;;;11.96;75.74;99118.84;343646;28;1174;-88
2022/11/09 00:23:13;;;;;;;12.05;6.68;;;;;;;11.95;75.95;99123.22;343556;28;1193;-88
2022/11/09 00:23:25;;;;;;;11.32;6.65;;;;;;;11.93;76.10;99118.97;342633;28;718;-88
2022/11/09 00:23:37;;;;;;;11.98;6.43;;;;;;;11.92;76.20;99123.34;341319;28;1080;-88
2022/11/09 00:23:49;;;;;;;13.43;6.22;;;;;;;11.87;76.55;99120.09;342665;28;1165;-89
2022/11/09 00:24:02;;;;;;;12.82;5.85;;;;;;;11.88;76.53;99124.38;343676;28;1244;-89
2022/11/09 00:24:14;;;;;;;12.23;5.90;;;;;;;11.89;76.49;99125.25;344569;28;937;-89
2022/11/09 00:24:26;;;;;;;9.50;5.60;;;;;;;11.91;76.53;99120.81;343923;28;1070;-88
2022/11/09 00:24:37;;;;;;;8.55;5.50;;;;;;;11.90;76.42;99122.59;342534;28;840;-88
2022/11/09 00:24:49;;;;;;;8.77;5.53;;;;;;;11.91;76.45;99116.47;340425;29;1141;-89
2022/11/09 00:25:01;;;;;;;9.83;5.53;;;;;;;11.91;76.57;99121.69;340037;29;759;-88
2022/11/09 00:25:14;;;;;;;10.52;5.68;;;;;;;11.89;76.68;99122.66;341253;28;836;-88
2022/11/09 00:25:26;;;;;;;12.00;5.78;;;;;;;11.87;76.59;99117.50;341510;28;1539;-88
2022/11/09 00:25:38;;;;;;;12.43;5.88;;;;;;;11.87;76.91;99120.09;341189;29;1084;-88
2022/11/09 00:25:50;;;;;;;11.25;6.28;;;;;;;11.88;77.07;99116.56;341444;29;746;-89
2022/11/09 00:26:03;;;;;;;10.70;5.93;;;;;;;11.89;76.97;99118.31;342056;28;1169;-88
2022/11/09 00:26:17;;;;;;;9.48;5.32;;;;;;;11.92;76.71;99123.34;341015;29;882;-88
2022/11/09 00:26:29;;;;;;;10.52;5.60;;;;;;;11.92;77.10;99120.75;339862;29;1123;-88
2022/11/09 00:26:41;;;;;;;10.73;5.75;;;;;;;11.87;77.48;99120.09;341188;28;794;-87
2022/11/09 00:26:53;;;;;;;11.07;5.75;;;;;;;11.88;77.51;99126.16;343742;28;1284;-89
2022/11/09 00:27:05;;;;;;;10.75;5.75;;;;;;;11.87;77.28;99124.44;342374;28;1119;-88
2022/11/09 00:27:17;;;;;;;10.85;5.68;;;;;;;11.84;77.40;99119.41;343984;28;777;-88
2022/11/09 00:27:29;;;;;;;10.98;5.50;;;;;;;11.87;77.65;99121.84;344528;28;1061;-88
2022/11/09 00:27:41;;;;;;;10.90;5.45;;;;;;;11.90;77.31;99116.53;345330;28;863;-88
2022/11/09 00:27:53;;;;;;;11.52;5.50;;;;;;;11.94;77.25;99120.69;343957;28;967;-88
2022/11/09 00:28:05;;;;;;;10.35;5.50;;;;;;;11.97;77.06;99125.75;342153;28;1595;-88
2022/11/09 00:28:17;;;;;;;9.02;5.60;;;;;;;12.02;77.31;99117.72;342323;28;1220;-88
2022/11/09 00:28:29;;;;;;;8.15;5.30;;;;;;;12.05;77.00;99122.78;340510;29;1214;-88
2022/11/09 00:28:41;;;;;;;9.15;4.90;;;;;;;12.07;76.88;99115.72;339790;29;1068;-88
2022/11/09 00:28:53;;;;;;;9.50;4.93;;;;;;;12.08;76.90;99117.44;340894;29;1164;-88
2022/11/09 00:29:05;;;;;;;10.02;5.13;;;;;;;12.06;76.52;99114.06;342726;28;742;-88
2022/11/09 00:29:17;;;;;;;9.63;4.97;;;;;;;12.08;76.66;99114.84;342501;28;884;-88
2022/11/09 00:29:29;;;;;;;8.85;4.93;;;;;;;12.12;76.59;99114.59;345281;28;1152;-88
2022/11/09 00:29:41;;;;;;;7.15;4.78;;;;;;;12.15;76.73;99119.69;343736;28;1198;-88
2022/11/09 00:29:53;;;;;;;7.10;4.80;;;;;;;12.17;76.85;99114.38;343770;28;1191;-88
2022/11/09 00:30:05;;;;;;;7.50;4.95;;;;;;;12.11;76.58;99122.50;343669;28;1092;-88
2022/11/09 00:30:17;;;;;;;8.05;5.20;;;;;;;12.03;76.86;99119.41;343624;28;1027;-88
2022/11/09 00:30:30;;;;;;;8.18;5.18;;;;;;;11.94;77.04;99111.09;343637;28;1028;-88
2022/11/09 00:30:42;;;;;;;8.02;5.20;;;;;;;11.93;77.43;99114.66;341954;28;1910;-89
2022/11/09 00:31:04;;;;;;;8.35;5.07;;;;;;;11.88;77.95;99120.94;342677;28;869;-88
2022/11/09 00:31:19;;;;;;;6.53;4.60;;;;;;;11.88;77.66;99116.56;342797;28;859;-88
2022/11/09 00:31:31;;;;;;;6.03;4.40;;;;;;;11.89;77.70;99118.31;343180;28;1776;-88
2022/11/09 00:31:43;;;;;;;5.97;4.20;;;;;;;11.84;77.29;99115.03;340932;29;1206;-88
2022/11/09 00:31:55;;;;;;;6.85;4.40;;;;;;;11.85;77.78;99111.53;340745;29;1832;-89
2022/11/09 00:32:07;;;;;;;6.82;4.22;;;;;;;11.89;77.74;99113.09;340891;29;1089;-88
2022/11/09 00:32:20;;;;;;;7.75;4.22;;;;;;;11.92;77.40;99110.34;341685;28;1016;-88
2022/11/09 00:32:38;;;;;;;7.05;4.10;;;;;;;11.89;77.63;99107.91;339808;29;2600;-88
2022/11/09 00:32:50;;;;;;;6.00;3.92;;;;;;;11.89;77.65;99114.84;340775;29;1330;-88
2022/11/09 00:33:02;;;;;;;5.90;3.85;;;;;;;11.92;77.87;99112.94;341793;28;1171;-88
2022/11/09 00:33:14;;;;;;;5.70;4.00;;;;;;;11.87;78.04;99109.69;341712;28;1423;-88
2022/11/09 00:33:26;;;;;;;6.17;4.23;;;;;;;11.90;77.77;99112.16;343901;28;982;-88
2022/11/09 00:33:38;;;;;;;6.35;4.40;;;;;;;11.93;77.84;99109.44;345170;28;1224;-87
2022/11/09 00:33:53;;;;;;;6.22;4.38;;;;;;;11.99;77.37;99108.28;345153;28;848;-88
2022/11/09 00:34:05;;;;;;;6.50;4.13;;;;;;;12.04;77.60;99111.53;343643;28;1015;-87
2022/11/09 00:34:16;;;;;;;5.95;3.97;;;;;;;12.08;77.54;99107.03;343605;28;834;-88
2022/11/09 00:34:28;;;;;;;5.47;3.95;;;;;;;12.09;77.24;99113.91;343517;28;1178;-87
2022/11/09 00:34:40;;;;;;;5.68;3.88;;;;;;;12.14;77.07;99096.31;341475;28;1872;-88
2022/11/09 00:34:52;;;;;;;6.50;4.00;;;;;;;12.18;77.25;99108.28;341093;29;776;-87
2022/11/09 00:35:05;;;;;;;6.32;3.70;;;;;;;12.20;76.86;99101.22;343737;28;1816;-88
2022/11/09 00:35:16;;;;;;;6.90;3.80;;;;;;;12.21;77.07;99109.88;344893;28;1179;-87
2022/11/09 00:35:28;;;;;;;6.60;3.75;;;;;;;12.23;77.03;99101.06;343817;28;741;-87
2022/11/09 00:35:40;;;;;;;5.93;3.80;;;;;;;12.27;76.53;99106.97;343572;28;1022;-87
2022/11/09 00:35:53;;;;;;;6.82;4.40;;;;;;;12.27;75.94;99102.59;343626;28;1225;-87
2022/11/09 00:36:09;;;;;;;6.43;4.30;;;;;;;12.30;76.24;99102.47;343120;28;1075;-88
2022/11/09 00:36:23;;;;;;;4.93;3.53;;;;;;;12.34;75.89;99103.16;343810;28;811;-87
2022/11/09 00:36:35;;;;;;;5.68;3.38;;;;;;;12.37;75.91;99103.88;344163;28;1059;-87
2022/11/09 00:36:47;;;;;;;6.68;3.58;;;;;;;12.40;75.48;99105.47;345185;28;758;-88
2022/11/09 00:36:58;;;;;;;6.20;3.63;;;;;;;12.42;75.46;99105.41;342568;28;750;-88
2022/11/09 00:37:10;;;;;;;5.43;3.60;;;;;;;12.44;75.58;99104.41;342431;28;832;-88
2022/11/09 00:37:22;;;;;;;6.07;3.65;;;;;;;12.47;75.37;99100.78;342504;28;1157;-88
2022/11/09 00:37:35;;;;;;;7.13;4.03;;;;;;;12.51;75.53;99107.53;342383;28;979;-88
2022/11/09 00:37:47;;;;;;;7.07;4.05;;;;;;;12.53;75.41;99113.53;342051;28;1135;-88
2022/11/09 00:37:59;;;;;;;7.68;4.10;;;;;;;12.55;75.62;99106.47;341096;28;960;-88
2022/11/09 00:38:11;;;;;;;6.57;4.00;;;;;;;12.57;75.37;99107.22;339051;29;1843;-88
2022/11/09 00:38:23;;;;;;;6.53;3.95;;;;;;;12.60;75.37;99109.69;341124;28;837;-88
2022/11/09 00:38:36;;;;;;;5.32;3.85;;;;;;;12.62;75.38;99101.81;342346;28;1058;-89
2022/11/09 00:38:51;;;;;;;5.22;4.10;;;;;;;12.61;75.18;99106.16;342564;28;1508;-88
2022/11/09 00:39:03;;;;;;;6.55;4.28;;;;;;;12.58;75.52;99114.16;345151;28;1085;-88
2022/11/09 00:39:15;;;;;;;7.35;4.50;;;;;;;12.53;75.27;99113.53;344892;28;939;-88
2022/11/09 00:39:27;;;;;;;7.88;4.80;;;;;;;12.54;75.02;99104.78;343137;28;1055;-88
2022/11/09 00:39:39;;;;;;;7.40;4.70;;;;;;;12.54;75.14;99110.00;342443;28;978;-88
2022/11/09 00:39:51;;;;;;;7.10;4.60;;;;;;;12.55;75.46;99107.31;342548;28;745;-88
2022/11/09 00:40:03;;;;;;;7.45;4.80;;;;;;;12.51;75.42;99112.75;342492;28;850;-88
2022/11/09 00:40:15;;;;;;;8.30;4.80;;;;;;;12.52;75.22;99117.06;342531;28;742;-88
2022/11/09 00:40:27;;;;;;;9.13;4.97;;;;;;;12.54;75.27;99120.44;343844;28;895;-88
2022/11/09 00:40:39;;;;;;;8.77;4.75;;;;;;;12.56;75.06;99116.00;342300;28;1240;-88
2022/11/09 00:40:51;;;;;;;7.13;4.38;;;;;;;12.58;75.15;99111.53;343754;28;824;-87
2022/11/09 00:41:04;;;;;;;8.13;4.28;;;;;;;12.61;75.27;99115.75;340606;29;929;-87
2022/11/09 00:41:16;;;;;;;8.63;4.50;;;;;;;12.62;75.27;99115.69;340950;29;1135;-88
2022/11/09 00:41:28;;;;;;;8.50;4.60;;;;;;;12.63;75.29;99109.53;343659;28;1233;-88
2022/11/09 00:41:40;;;;;;;8.73;4.50;;;;;;;12.65;75.18;99112.91;343772;28;851;-88
2022/11/09 00:41:52;;;;;;;8.77;4.43;;;;;;;12.66;75.19;99114.63;345052;28;849;-88
2022/11/09 00:42:06;;;;;;;9.02;4.63;;;;;;;12.68;75.20;99109.31;346412;28;1073;-88
2022/11/09 00:42:18;;;;;;;7.60;4.68;;;;;;;12.70;74.97;99105.72;346262;28;1262;-88
2022/11/09 00:42:29;;;;;;;8.48;4.65;;;;;;;12.70;74.88;99107.50;343422;28;1276;-88
2022/11/09 00:42:41;;;;;;;8.52;4.50;;;;;;;12.67;74.81;99110.22;343574;28;1090;-89
2022/11/09 00:42:53;;;;;;;7.13;4.35;;;;;;;12.65;74.58;99115.53;343359;28;1086;-89
2022/11/09 00:43:05;;;;;;;7.00;4.50;;;;;;;12.64;74.57;99110.41;341148;29;857;-88
2022/11/09 00:43:17;;;;;;;7.70;4.47;;;;;;;12.66;74.46;99113.78;341104;29;958;-89
2022/11/09 00:43:30;;;;;;;8.07;4.35;;;;;;;12.66;74.58;99104.19;341128;29;877;-89
2022/11/09 00:43:42;;;;;;;7.70;4.40;;;;;;;12.67;74.74;99116.28;341172;29;835;-88
2022/11/09 00:43:54;;;;;;;6.80;4.32;;;;;;;12.68;74.57;99112.78;341515;28;1082;-88
2022/11/09 00:44:06;;;;;;;7.10;4.20;;;;;;;12.67;74.40;99116.28;342765;28;1077;-89
2022/11/09 00:44:18;;;;;;;7.47;4.30;;;;;;;12.65;74.47;99118.13;342492;28;1069;-89
2022/11/09 00:44:30;;;;;;;7.47;4.25;;;;;;;12.65;74.50;99102.47;342588;28;1080;-89
2022/11/09 00:44:42;;;;;;;7.18;4.15;;;;;;;12.63;74.60;99112.16;342375;28;818;-88
2022/11/09 00:44:54;;;;;;;6.05;4.20;;;;;;;12.64;74.39;99111.25;342242;28;1264;-89
2022/11/09 00:45:06;;;;;;;6.53;4.30;;;;;;;12.66;74.47;99114.63;341247;29;738;-88
2022/11/09 00:45:19;;;;;;;6.85;4.38;;;;;;;12.67;74.25;99116.28;341003;29;754;-89
2022/11/09 00:45:31;;;;;;;7.47;4.30;;;;;;;12.67;74.46;99116.28;340991;29;1080;-88
2022/11/09 00:45:43;;;;;;;6.85;4.00;;;;;;;12.70;74.68;99116.16;341248;29;738;-88
2022/11/09 00:45:55;;;;;;;5.85;3.90;;;;;;;12.71;74.42;99112.59;341211;28;777;-88
2022/11/09 00:46:07;;;;;;;6.57;4.07;;;;;;;12.73;74.59;99115.16;342234;28;1808;-88
2022/11/09 00:46:19;;;;;;;7.32;3.97;;;;;;;12.75;74.78;99111.53;343687;28;1504;-88
2022/11/09 00:46:32;;;;;;;7.75;4.20;;;;;;;12.76;74.66;99109.78;343653;28;1733;-88
2022/11/09 00:46:44;;;;;;;9.30;4.30;;;;;;;12.77;74.53;99117.50;343797;28;1166;-89
2022/11/09 00:46:56;;;;;;;8.97;4.13;;;;;;;12.78;74.57;99114.00;344104;28;976;-87
2022/11/09 00:47:08;;;;;;;8.02;4.20;;;;;;;12.78;74.35;99119.22;345139;28;878;-88
2022/11/09 00:47:20;;;;;;;7.28;4.32;;;;;;;12.77;74.25;99111.47;343828;28;737;-88
2022/11/09 00:47:32;;;;;;;7.65;4.30;;;;;;;12.73;74.05;99110.75;340850;29;1118;-88
2022/11/09 00:47:44;;;;;;;8.38;4.30;;;;;;;12.71;74.29;99115.22;341216;29;754;-88
2022/11/09 00:47:55;;;;;;;7.03;4.10;;;;;;;12.72;74.17;99116.91;342376;28;907;-89
2022/11/09 00:48:08;;;;;;;7.22;4.05;;;;;;;12.72;74.16;99113.47;345095;28;1125;-88
2022/11/09 00:48:20;;;;;;;7.15;4.28;;;;;;;12.71;74.23;99107.38;344399;28;1173;-87
2022/11/09 00:48:32;;;;;;;6.88;4.30;;;;;;;12.68;74.26;99118.00;343730;28;2549;-88
2022/11/09 00:48:45;;;;;;;6.95;4.22;;;;;;;12.68;74.41;99112.78;343109;28;1493;-89
2022/11/09 00:48:57;;;;;;;7.30;4.05;;;;;;;12.69;74.26;99119.66;343533;28;738;-88
2022/11/09 00:49:09;;;;;;;7.18;4.15;;;;;;;12.70;74.53;99116.16;343554;28;2794;-87
2022/11/09 00:49:21;;;;;;;6.82;4.20;;;;;;;12.71;74.45;99114.38;342817;28;1134;-88
2022/11/09 00:49:33;;;;;;;6.50;4.18;;;;;;;12.67;74.82;99121.50;342327;28;1122;-88
2022/11/09 00:49:45;;;;;;;7.03;4.07;;;;;;;12.64;74.46;99126.03;342395;28;942;-88
2022/11/09 00:49:57;;;;;;;6.40;4.10;;;;;;;12.63;74.73;99119.97;343170;28;1169;-89
2022/11/09 00:50:09;;;;;;;7.28;4.30;;;;;;;12.60;74.65;99133.16;340871;29;1200;-88
2022/11/09 00:50:21;;;;;;;7.20;4.10;;;;;;;12.63;74.81;99129.56;342299;28;1169;-89
2022/11/09 00:50:33;;;;;;;7.18;4.20;;;;;;;12.62;74.39;99123.50;342448;28;1034;-88
2022/11/09 00:50:51;;;;;;;6.00;4.15;;;;;;;12.64;74.68;99116.44;342328;28;1067;-89
2022/11/09 00:51:04;;;;;;;6.05;4.32;;;;;;;12.68;74.94;99127.59;342473;28;962;-89
2022/11/09 00:51:17;;;;;;;6.85;4.25;;;;;;;12.69;74.74;99119.66;342548;28;1161;-87
2022/11/09 00:51:29;;;;;;;6.93;3.95;;;;;;;12.71;74.23;99117.81;341121;29;1571;-88
2022/11/09 00:51:41;;;;;;;7.70;3.95;;;;;;;12.75;74.50;99116.75;342470;28;738;-88
2022/11/09 00:51:53;;;;;;;7.07;4.25;;;;;;;12.76;74.51;99117.59;341875;28;1357;-89
2022/11/09 00:52:05;;;;;;;6.10;4.28;;;;;;;12.75;74.26;99116.75;340052;29;735;-88
2022/11/09 00:52:17;;;;;;;5.82;4.13;;;;;;;12.77;74.26;99117.50;341248;29;1109;-89
2022/11/09 00:52:29;;;;;;;6.03;3.92;;;;;;;12.73;74.12;99115.97;341350;29;836;-88
2022/11/09 00:52:41;;;;;;;7.32;4.00;;;;;;;12.72;74.11;99123.91;342271;29;1992;-87
2022/11/09 00:52:53;;;;;;;8.43;4.20;;;;;;;12.70;74.46;99121.38;345737;28;919;-88
2022/11/09 00:53:05;;;;;;;8.32;4.55;;;;;;;12.69;74.33;99124.88;345181;28;1156;-87
2022/11/09 00:53:18;;;;;;;8.43;4.70;;;;;;;12.69;74.35;99119.66;347033;28;1582;-87
2022/11/09 00:53:31;;;;;;;8.13;4.32;;;;;;;12.65;74.30;99127.72;346153;28;1547;-88
2022/11/09 00:53:47;;;;;;;8.23;4.43;;;;;;;12.65;74.25;99128.56;345564;28;1009;-88
2022/11/09 00:53:58;;;;;;;7.55;4.80;;;;;;;12.68;74.16;99118.00;345520;28;965;-87
2022/11/09 00:54:11;;;;;;;6.78;4.68;;;;;;;12.69;74.29;99124.88;347022;28;1002;-87
2022/11/09 00:54:23;;;;;;;6.72;4.45;;;;;;;12.69;74.08;99117.06;345406;28;978;-88
2022/11/09 00:54:35;;;;;;;6.63;4.35;;;;;;;12.67;74.09;99121.50;345466;28;963;-88
2022/11/09 00:54:47;;;;;;;7.10;4.28;;;;;;;12.68;74.24;99118.00;345261;28;1151;-88
2022/11/09 00:54:59;;;;;;;7.18;4.25;;;;;;;12.69;74.27;99124.03;345631;28;977;-88
2022/11/09 00:55:11;;;;;;;7.10;4.40;;;;;;;12.69;74.31;99124.03;347165;28;933;-88
2022/11/09 00:55:23;;;;;;;7.10;4.50;;;;;;;12.70;74.36;99126.56;348535;28;951;-88
2022/11/09 00:55:35;;;;;;;7.20;4.40;;;;;;;12.69;74.11;99127.47;347055;28;1021;-87
2022/11/09 00:56:00;;;;;;;7.28;4.25;;;;;;;12.65;74.19;99132.94;348666;28;969;-88
2022/11/09 00:56:13;;;;;;;7.25;4.43;;;;;;;12.66;74.46;99126.81;348047;28;957;-87
2022/11/09 00:56:25;;;;;;;6.45;4.43;;;;;;;12.65;74.42;99128.56;347220;28;1076;-88
2022/11/09 00:56:37;;;;;;;6.88;4.35;;;;;;;12.58;74.60;99127.19;346588;28;1648;-87
2022/11/09 00:56:49;;;;;;;7.22;4.22;;;;;;;12.52;74.69;99123.13;343212;29;1076;-88
2022/11/09 00:57:01;;;;;;;7.82;4.20;;;;;;;12.50;75.10;99124.94;342989;29;1118;-87
2022/11/09 00:57:13;;;;;;;8.90;4.30;;;;;;;12.54;74.94;99130.88;343051;28;1077;-86
2022/11/09 00:57:24;;;;;;;8.90;4.22;;;;;;;12.53;74.94;99126.56;342911;29;1251;-87
2022/11/09 00:57:36;;;;;;;7.82;4.03;;;;;;;12.54;75.08;99128.25;341599;29;1003;-87
2022/11/09 00:57:49;;;;;;;6.43;4.10;;;;;;;12.52;74.97;99132.69;342815;29;1027;-88
2022/11/09 00:58:01;;;;;;;6.55;4.40;;;;;;;12.50;75.20;99127.56;344024;28;1447;-88
2022/11/09 00:58:13;;;;;;;8.00;4.53;;;;;;;12.51;75.25;99131.00;343576;28;1111;-88
2022/11/09 00:58:27;;;;;;;8.80;4.43;;;;;;;12.49;75.19;99128.47;342552;28;995;-88
2022/11/09 00:58:39;;;;;;;8.23;4.40;;;;;;;12.48;75.45;99128.56;342210;28;1093;-88
2022/11/09 00:58:54;;;;;;;6.38;4.00;;;;;;;12.51;75.41;99131.00;343899;28;737;-88
2022/11/09 00:59:09;;;;;;;6.35;4.03;;;;;;;12.49;75.88;99131.06;342582;28;833;-88
2022/11/09 00:59:21;;;;;;;7.63;4.20;;;;;;;12.45;75.58;99128.69;342534;28;1079;-88
2022/11/09 00:59:33;;;;;;;7.18;4.10;;;;;;;12.49;75.42;99132.84;345125;28;940;-89
2022/11/09 00:59:45;;;;;;;7.07;4.20;;;;;;;12.49;75.56;99127.63;344917;28;1225;-89
2022/11/09 00:59:57;;;;;;;7.45;4.25;;;;;;;12.44;75.68;99134.84;347905;28;749;-88
2022/11/09 01:00:10;;;;;;;7.13;4.32;;;;;;;12.41;75.77;99127.16;347201;28;713;-88
2022/11/09 01:00:23;;;;;;;7.45;4.30;;;;;;;12.46;75.56;99128.63;346768;28;1157;-87
2022/11/09 01:00:36;;;;;;;7.13;4.00;;;;;;;12.51;75.34;99128.41;346145;28;842;-88
2022/11/09 01:00:48;;;;;;;6.10;3.90;;;;;;;12.54;75.69;99136.06;345702;28;1079;-88